sensor_id;sensor_type;location;lat;lon;timestamp;pressure;altitude;pressure_sealevel;temperature;humidity
41306;BME280;27051;50.376;19.152;2024-01-11T00:01:21;99347.30;;;-6.22;48.69
41306;BME280;27051;50.376;19.152;2024-01-11T00:03:48;99342.94;;;-6.26;48.68
41306;BME280;27051;50.376;19.152;2024-01-11T00:06:15;99340.53;;;-6.21;49.02
41306;BME280;27051;50.376;19.152;2024-01-11T00:08:42;99340.30;;;-6.22;48.99
41306;BME280;27051;50.376;19.152;2024-01-11T00:11:10;99338.45;;;-6.12;48.80
41306;BME280;27051;50.376;19.152;2024-01-11T00:13:37;99329.87;;;-6.21;48.64
41306;BME280;27051;50.376;19.152;2024-01-11T00:16:04;99319.60;;;-6.21;48.62
41306;BME280;27051;50.376;19.152;2024-01-11T00:18:31;99311.54;;;-6.26;48.81
41306;BME280;27051;50.376;19.152;2024-01-11T00:20:58;99303.66;;;-6.20;49.78
41306;BME280;27051;50.376;19.152;2024-01-11T00:23:25;99302.33;;;-6.00;50.16
41306;BME280;27051;50.376;19.152;2024-01-11T00:25:52;99298.85;;;-5.88;50.19
41306;BME280;27051;50.376;19.152;2024-01-11T00:28:19;99296.89;;;-5.74;50.37
41306;BME280;27051;50.376;19.152;2024-01-11T00:30:46;99298.00;;;-5.58;50.21
41306;BME280;27051;50.376;19.152;2024-01-11T00:33:13;99296.16;;;-5.49;50.13
41306;BME280;27051;50.376;19.152;2024-01-11T00:35:40;99288.92;;;-5.38;49.97
41306;BME280;27051;50.376;19.152;2024-01-11T00:38:07;99289.27;;;-5.32;49.98
41306;BME280;27051;50.376;19.152;2024-01-11T00:40:34;99281.80;;;-5.29;49.97
41306;BME280;27051;50.376;19.152;2024-01-11T00:43:01;99277.19;;;-5.21;49.95
41306;BME280;27051;50.376;19.152;2024-01-11T00:45:28;99273.06;;;-5.18;49.88
41306;BME280;27051;50.376;19.152;2024-01-11T00:47:55;99271.28;;;-5.15;49.90
41306;BME280;27051;50.376;19.152;2024-01-11T00:50:22;99276.86;;;-5.13;50.02
41306;BME280;27051;50.376;19.152;2024-01-11T00:52:49;99275.14;;;-5.11;49.88
41306;BME280;27051;50.376;19.152;2024-01-11T00:55:15;99274.10;;;-5.14;49.98
41306;BME280;27051;50.376;19.152;2024-01-11T00:57:42;99277.55;;;-5.13;49.89
41306;BME280;27051;50.376;19.152;2024-01-11T01:00:11;99271.79;;;-5.11;50.04
41306;BME280;27051;50.376;19.152;2024-01-11T01:02:38;99280.48;;;-5.11;49.95
41306;BME280;27051;50.376;19.152;2024-01-11T01:05:05;99287.59;;;-5.11;49.76
41306;BME280;27051;50.376;19.152;2024-01-11T01:07:32;99293.82;;;-5.15;49.93
41306;BME280;27051;50.376;19.152;2024-01-11T01:09:59;99293.89;;;-5.15;49.33
41306;BME280;27051;50.376;19.152;2024-01-11T01:12:26;99295.27;;;-5.30;48.66
41306;BME280;27051;50.376;19.152;2024-01-11T01:14:53;99289.93;;;-5.53;48.34
41306;BME280;27051;50.376;19.152;2024-01-11T01:17:20;99288.08;;;-5.72;48.34
41306;BME280;27051;50.376;19.152;2024-01-11T01:19:47;99288.48;;;-5.97;48.56
41306;BME280;27051;50.376;19.152;2024-01-11T01:22:14;99284.21;;;-6.25;48.79
41306;BME280;27051;50.376;19.152;2024-01-11T01:24:41;99280.23;;;-6.32;49.10
41306;BME280;27051;50.376;19.152;2024-01-11T01:27:07;99268.02;;;-6.26;49.50
41306;BME280;27051;50.376;19.152;2024-01-11T01:29:34;99260.42;;;-6.12;49.87
41306;BME280;27051;50.376;19.152;2024-01-11T01:32:01;99254.45;;;-6.00;50.13
41306;BME280;27051;50.376;19.152;2024-01-11T01:34:28;99254.85;;;-5.86;50.40
41306;BME280;27051;50.376;19.152;2024-01-11T01:36:55;99255.96;;;-5.74;50.47
41306;BME280;27051;50.376;19.152;2024-01-11T01:39:22;99253.61;;;-5.67;50.48
41306;BME280;27051;50.376;19.152;2024-01-11T01:41:49;99256.05;;;-5.63;50.41
41306;BME280;27051;50.376;19.152;2024-01-11T01:44:16;99250.08;;;-5.58;50.52
41306;BME280;27051;50.376;19.152;2024-01-11T01:46:43;99246.78;;;-5.57;50.52
41306;BME280;27051;50.376;19.152;2024-01-11T01:49:10;99239.06;;;-5.61;50.71
41306;BME280;27051;50.376;19.152;2024-01-11T01:51:38;99240.33;;;-5.67;50.76
41306;BME280;27051;50.376;19.152;2024-01-11T01:54:06;99234.87;;;-5.64;50.81
41306;BME280;27051;50.376;19.152;2024-01-11T01:56:33;99232.13;;;-5.63;50.57
41306;BME280;27051;50.376;19.152;2024-01-11T01:59:00;99235.52;;;-5.61;50.60
41306;BME280;27051;50.376;19.152;2024-01-11T02:01:28;99240.19;;;-5.61;50.60
41306;BME280;27051;50.376;19.152;2024-01-11T02:03:55;99239.86;;;-5.61;50.84
41306;BME280;27051;50.376;19.152;2024-01-11T02:06:25;99239.60;;;-5.56;50.73
41306;BME280;27051;50.376;19.152;2024-01-11T02:08:52;99235.48;;;-5.54;50.63
41306;BME280;27051;50.376;19.152;2024-01-11T02:11:20;99236.56;;;-5.50;50.62
41306;BME280;27051;50.376;19.152;2024-01-11T02:13:49;99236.94;;;-5.43;50.55
41306;BME280;27051;50.376;19.152;2024-01-11T02:16:16;99234.69;;;-5.43;50.39
41306;BME280;27051;50.376;19.152;2024-01-11T02:18:43;99232.61;;;-5.42;50.52
41306;BME280;27051;50.376;19.152;2024-01-11T02:21:14;99228.30;;;-5.40;50.56
41306;BME280;27051;50.376;19.152;2024-01-11T02:24:06;99227.37;;;-5.39;50.45
41306;BME280;27051;50.376;19.152;2024-01-11T02:26:34;99230.80;;;-5.39;50.43
41306;BME280;27051;50.376;19.152;2024-01-11T02:29:01;99234.34;;;-5.35;50.42
41306;BME280;27051;50.376;19.152;2024-01-11T02:31:28;99232.41;;;-5.41;50.33
41306;BME280;27051;50.376;19.152;2024-01-11T02:33:56;99233.30;;;-5.47;50.27
41306;BME280;27051;50.376;19.152;2024-01-11T02:36:23;99228.50;;;-5.48;50.50
41306;BME280;27051;50.376;19.152;2024-01-11T02:38:52;99226.68;;;-5.48;50.06
41306;BME280;27051;50.376;19.152;2024-01-11T02:41:20;99226.70;;;-5.55;49.91
41306;BME280;27051;50.376;19.152;2024-01-11T02:43:48;99229.90;;;-5.63;49.68
41306;BME280;27051;50.376;19.152;2024-01-11T02:46:16;99227.88;;;-5.75;49.84
41306;BME280;27051;50.376;19.152;2024-01-11T02:48:43;99227.70;;;-5.78;50.00
41306;BME280;27051;50.376;19.152;2024-01-11T02:51:10;99218.61;;;-5.73;50.37
41306;BME280;27051;50.376;19.152;2024-01-11T02:53:37;99220.42;;;-5.72;50.36
41306;BME280;27051;50.376;19.152;2024-01-11T02:56:04;99220.95;;;-5.71;50.49
41306;BME280;27051;50.376;19.152;2024-01-11T02:58:31;99217.30;;;-5.64;50.68
41306;BME280;27051;50.376;19.152;2024-01-11T03:00:58;99216.58;;;-5.63;50.54
41306;BME280;27051;50.376;19.152;2024-01-11T03:03:25;99214.06;;;-5.61;50.71
41306;BME280;27051;50.376;19.152;2024-01-11T03:05:51;99215.16;;;-5.59;50.58
41306;BME280;27051;50.376;19.152;2024-01-11T03:08:18;99214.30;;;-5.62;50.16
41306;BME280;27051;50.376;19.152;2024-01-11T03:10:45;99212.92;;;-5.67;49.99
41306;BME280;27051;50.376;19.152;2024-01-11T03:13:12;99204.95;;;-5.70;49.99
41306;BME280;27051;50.376;19.152;2024-01-11T03:15:39;99201.89;;;-5.72;50.09
41306;BME280;27051;50.376;19.152;2024-01-11T03:18:06;99196.83;;;-5.73;50.24
41306;BME280;27051;50.376;19.152;2024-01-11T03:20:33;99198.71;;;-5.73;50.49
41306;BME280;27051;50.376;19.152;2024-01-11T03:23:00;99199.78;;;-5.65;50.64
41306;BME280;27051;50.376;19.152;2024-01-11T03:25:29;99197.05;;;-5.59;50.94
41306;BME280;27051;50.376;19.152;2024-01-11T03:27:57;99191.85;;;-5.56;51.03
41306;BME280;27051;50.376;19.152;2024-01-11T03:30:25;99183.40;;;-5.52;50.99
41306;BME280;27051;50.376;19.152;2024-01-11T03:32:52;99181.55;;;-5.49;50.85
41306;BME280;27051;50.376;19.152;2024-01-11T03:35:19;99182.44;;;-5.51;50.76
41306;BME280;27051;50.376;19.152;2024-01-11T03:37:47;99179.09;;;-5.48;50.83
41306;BME280;27051;50.376;19.152;2024-01-11T03:40:14;99172.61;;;-5.44;50.87
41306;BME280;27051;50.376;19.152;2024-01-11T03:42:41;99171.16;;;-5.44;50.96
41306;BME280;27051;50.376;19.152;2024-01-11T03:45:09;99180.30;;;-5.48;50.86
41306;BME280;27051;50.376;19.152;2024-01-11T03:47:36;99184.70;;;-5.52;50.66
41306;BME280;27051;50.376;19.152;2024-01-11T03:50:03;99173.33;;;-5.58;50.68
41306;BME280;27051;50.376;19.152;2024-01-11T03:52:30;99174.08;;;-5.57;50.72
41306;BME280;27051;50.376;19.152;2024-01-11T03:54:57;99170.91;;;-5.58;50.73
41306;BME280;27051;50.376;19.152;2024-01-11T03:57:24;99168.06;;;-5.63;50.84
41306;BME280;27051;50.376;19.152;2024-01-11T03:59:51;99159.73;;;-5.65;50.88
41306;BME280;27051;50.376;19.152;2024-01-11T04:02:17;99158.81;;;-5.69;50.82
41306;BME280;27051;50.376;19.152;2024-01-11T04:04:44;99153.58;;;-5.71;51.05
41306;BME280;27051;50.376;19.152;2024-01-11T04:07:11;99164.91;;;-5.72;50.90
41306;BME280;27051;50.376;19.152;2024-01-11T04:09:38;99171.15;;;-5.73;50.97
41306;BME280;27051;50.376;19.152;2024-01-11T04:12:06;99166.49;;;-5.76;50.88
41306;BME280;27051;50.376;19.152;2024-01-11T04:14:33;99171.96;;;-5.75;50.97
41306;BME280;27051;50.376;19.152;2024-01-11T04:16:59;99171.27;;;-5.72;50.98
41306;BME280;27051;50.376;19.152;2024-01-11T04:19:26;99170.58;;;-5.69;50.96
41306;BME280;27051;50.376;19.152;2024-01-11T04:21:53;99171.05;;;-5.67;50.86
41306;BME280;27051;50.376;19.152;2024-01-11T04:24:20;99173.34;;;-5.65;50.98
41306;BME280;27051;50.376;19.152;2024-01-11T04:26:47;99170.39;;;-5.74;50.89
41306;BME280;27051;50.376;19.152;2024-01-11T04:29:14;99167.39;;;-5.78;51.02
41306;BME280;27051;50.376;19.152;2024-01-11T04:31:41;99166.77;;;-5.76;50.87
41306;BME280;27051;50.376;19.152;2024-01-11T04:34:08;99161.48;;;-5.74;51.05
41306;BME280;27051;50.376;19.152;2024-01-11T04:36:37;99157.45;;;-5.71;51.10
41306;BME280;27051;50.376;19.152;2024-01-11T04:39:04;99164.03;;;-5.76;50.89
41306;BME280;27051;50.376;19.152;2024-01-11T04:41:31;99174.04;;;-5.84;50.99
41306;BME280;27051;50.376;19.152;2024-01-11T04:43:58;99170.34;;;-5.85;50.94
41306;BME280;27051;50.376;19.152;2024-01-11T04:46:25;99161.90;;;-5.86;51.05
41306;BME280;27051;50.376;19.152;2024-01-11T04:48:52;99162.60;;;-5.83;51.04
41306;BME280;27051;50.376;19.152;2024-01-11T04:51:19;99153.90;;;-5.79;51.12
41306;BME280;27051;50.376;19.152;2024-01-11T04:53:46;99148.23;;;-5.73;51.33
41306;BME280;27051;50.376;19.152;2024-01-11T04:56:15;99148.49;;;-5.69;51.17
41306;BME280;27051;50.376;19.152;2024-01-11T04:58:43;99150.48;;;-5.66;51.23
41306;BME280;27051;50.376;19.152;2024-01-11T05:01:15;99146.14;;;-5.65;51.19
41306;BME280;27051;50.376;19.152;2024-01-11T05:03:47;99133.90;;;-5.66;51.30
41306;BME280;27051;50.376;19.152;2024-01-11T05:06:17;99120.18;;;-5.71;51.41
41306;BME280;27051;50.376;19.152;2024-01-11T05:08:49;99110.73;;;-5.73;51.57
41306;BME280;27051;50.376;19.152;2024-01-11T05:11:21;99106.12;;;-5.78;51.93
41306;BME280;27051;50.376;19.152;2024-01-11T05:13:49;99106.22;;;-5.76;51.62
41306;BME280;27051;50.376;19.152;2024-01-11T05:16:20;99105.91;;;-5.75;51.80
41306;BME280;27051;50.376;19.152;2024-01-11T05:18:48;99109.44;;;-5.73;51.77
41306;BME280;27051;50.376;19.152;2024-01-11T05:21:15;99112.89;;;-5.70;51.91
41306;BME280;27051;50.376;19.152;2024-01-11T05:23:42;99125.36;;;-5.65;51.60
41306;BME280;27051;50.376;19.152;2024-01-11T05:26:10;99136.69;;;-5.68;51.64
41306;BME280;27051;50.376;19.152;2024-01-11T05:28:37;99140.77;;;-5.71;51.63
41306;BME280;27051;50.376;19.152;2024-01-11T05:31:12;99130.95;;;-5.74;51.46
41306;BME280;27051;50.376;19.152;2024-01-11T05:33:40;99126.96;;;-5.72;51.59
41306;BME280;27051;50.376;19.152;2024-01-11T05:36:07;99129.00;;;-5.72;51.28
41306;BME280;27051;50.376;19.152;2024-01-11T05:38:35;99116.89;;;-5.74;51.46
41306;BME280;27051;50.376;19.152;2024-01-11T05:41:02;99105.05;;;-5.74;51.58
41306;BME280;27051;50.376;19.152;2024-01-11T05:43:29;99096.46;;;-5.73;51.74
41306;BME280;27051;50.376;19.152;2024-01-11T05:45:55;99092.12;;;-5.73;51.52
41306;BME280;27051;50.376;19.152;2024-01-11T05:48:22;99093.77;;;-5.78;51.56
41306;BME280;27051;50.376;19.152;2024-01-11T05:50:49;99102.00;;;-5.78;51.60
41306;BME280;27051;50.376;19.152;2024-01-11T05:53:16;99101.20;;;-5.79;51.66
41306;BME280;27051;50.376;19.152;2024-01-11T05:55:43;99103.88;;;-5.74;51.74
41306;BME280;27051;50.376;19.152;2024-01-11T05:58:10;99109.13;;;-5.73;51.62
41306;BME280;27051;50.376;19.152;2024-01-11T06:00:37;99110.12;;;-5.72;51.70
41306;BME280;27051;50.376;19.152;2024-01-11T06:03:04;99107.35;;;-5.75;51.84
41306;BME280;27051;50.376;19.152;2024-01-11T06:05:31;99104.58;;;-5.75;51.79
41306;BME280;27051;50.376;19.152;2024-01-11T06:07:58;99100.40;;;-5.82;51.74
41306;BME280;27051;50.376;19.152;2024-01-11T06:10:25;99098.11;;;-5.83;51.65
41306;BME280;27051;50.376;19.152;2024-01-11T06:12:52;99098.98;;;-5.87;51.84
41306;BME280;27051;50.376;19.152;2024-01-11T06:15:19;99096.66;;;-5.91;51.77
41306;BME280;27051;50.376;19.152;2024-01-11T06:17:46;99091.37;;;-5.87;51.72
41306;BME280;27051;50.376;19.152;2024-01-11T06:20:13;99085.29;;;-5.88;51.87
41306;BME280;27051;50.376;19.152;2024-01-11T06:22:40;99091.20;;;-5.87;51.61
41306;BME280;27051;50.376;19.152;2024-01-11T06:25:07;99090.38;;;-5.84;51.86
41306;BME280;27051;50.376;19.152;2024-01-11T06:27:34;99087.64;;;-5.79;51.80
41306;BME280;27051;50.376;19.152;2024-01-11T06:30:01;99073.90;;;-5.73;51.77
41306;BME280;27051;50.376;19.152;2024-01-11T06:32:28;99056.02;;;-5.72;51.71
41306;BME280;27051;50.376;19.152;2024-01-11T06:34:55;99032.51;;;-5.75;51.83
41306;BME280;27051;50.376;19.152;2024-01-11T06:37:22;99024.65;;;-5.77;51.97
41306;BME280;27051;50.376;19.152;2024-01-11T06:39:49;99028.34;;;-5.79;52.02
41306;BME280;27051;50.376;19.152;2024-01-11T06:42:16;99035.20;;;-5.82;52.15
41306;BME280;27051;50.376;19.152;2024-01-11T06:44:43;99035.96;;;-5.83;52.02
41306;BME280;27051;50.376;19.152;2024-01-11T06:47:10;99038.75;;;-5.75;52.06
41306;BME280;27051;50.376;19.152;2024-01-11T06:49:41;99029.84;;;-5.68;52.02
41306;BME280;27051;50.376;19.152;2024-01-11T06:52:08;99024.02;;;-5.66;52.07
41306;BME280;27051;50.376;19.152;2024-01-11T06:54:34;99014.63;;;-5.62;52.00
41306;BME280;27051;50.376;19.152;2024-01-11T06:57:02;99020.94;;;-5.55;52.05
41306;BME280;27051;50.376;19.152;2024-01-11T06:59:29;99019.55;;;-5.46;52.11
41306;BME280;27051;50.376;19.152;2024-01-11T07:01:56;99016.38;;;-5.36;52.06
41306;BME280;27051;50.376;19.152;2024-01-11T07:04:23;99008.82;;;-5.26;52.13
41306;BME280;27051;50.376;19.152;2024-01-11T07:06:50;99000.23;;;-5.13;52.09
41306;BME280;27051;50.376;19.152;2024-01-11T07:09:17;98991.88;;;-5.02;51.95
41306;BME280;27051;50.376;19.152;2024-01-11T07:11:44;98998.05;;;-4.93;51.99
41306;BME280;27051;50.376;19.152;2024-01-11T07:14:10;99007.52;;;-4.80;51.87
41306;BME280;27051;50.376;19.152;2024-01-11T07:16:38;99014.21;;;-4.63;51.83
41306;BME280;27051;50.376;19.152;2024-01-11T07:19:04;99028.22;;;-4.50;52.00
41306;BME280;27051;50.376;19.152;2024-01-11T07:21:31;99036.61;;;-4.46;51.84
41306;BME280;27051;50.376;19.152;2024-01-11T07:23:59;99040.54;;;-4.36;51.71
41306;BME280;27051;50.376;19.152;2024-01-11T07:26:27;99044.90;;;-4.25;51.69
41306;BME280;27051;50.376;19.152;2024-01-11T07:28:54;99047.36;;;-4.07;51.61
41306;BME280;27051;50.376;19.152;2024-01-11T07:31:21;99047.96;;;-4.06;51.29
41306;BME280;27051;50.376;19.152;2024-01-11T07:33:47;99052.08;;;-4.02;51.40
41306;BME280;27051;50.376;19.152;2024-01-11T07:36:14;99043.01;;;-3.97;51.31
41306;BME280;27051;50.376;19.152;2024-01-11T07:38:41;99026.51;;;-3.87;51.38
41306;BME280;27051;50.376;19.152;2024-01-11T07:41:08;99007.23;;;-3.69;51.23
41306;BME280;27051;50.376;19.152;2024-01-11T07:43:35;99001.90;;;-3.55;51.08
41306;BME280;27051;50.376;19.152;2024-01-11T07:46:02;98993.92;;;-3.49;50.97
41306;BME280;27051;50.376;19.152;2024-01-11T07:48:29;98999.76;;;-3.38;50.98
41306;BME280;27051;50.376;19.152;2024-01-11T07:50:57;98992.46;;;-3.25;50.84
41306;BME280;27051;50.376;19.152;2024-01-11T07:53:24;98989.88;;;-3.12;50.33
41306;BME280;27051;50.376;19.152;2024-01-11T07:55:52;98974.44;;;-3.03;50.30
41306;BME280;27051;50.376;19.152;2024-01-11T07:58:19;98968.74;;;-2.99;50.23
41306;BME280;27051;50.376;19.152;2024-01-11T08:00:47;98976.88;;;-2.92;50.32
41306;BME280;27051;50.376;19.152;2024-01-11T08:03:15;98970.44;;;-2.82;50.34
41306;BME280;27051;50.376;19.152;2024-01-11T08:05:42;98964.04;;;-2.76;49.91
41306;BME280;27051;50.376;19.152;2024-01-11T08:08:09;98965.30;;;-2.72;49.96
41306;BME280;27051;50.376;19.152;2024-01-11T08:10:36;98970.34;;;-2.67;49.74
41306;BME280;27051;50.376;19.152;2024-01-11T08:13:03;98959.56;;;-2.62;49.90
41306;BME280;27051;50.376;19.152;2024-01-11T08:15:30;98957.98;;;-2.54;49.92
41306;BME280;27051;50.376;19.152;2024-01-11T08:17:57;98957.70;;;-2.52;49.72
41306;BME280;27051;50.376;19.152;2024-01-11T08:20:24;98942.75;;;-2.55;49.68
41306;BME280;27051;50.376;19.152;2024-01-11T08:22:51;98944.40;;;-2.54;49.77
41306;BME280;27051;50.376;19.152;2024-01-11T08:25:18;98947.15;;;-2.48;49.85
41306;BME280;27051;50.376;19.152;2024-01-11T08:27:45;98957.31;;;-2.40;49.97
41306;BME280;27051;50.376;19.152;2024-01-11T08:30:12;98951.52;;;-2.26;50.31
41306;BME280;27051;50.376;19.152;2024-01-11T08:32:39;98942.95;;;-2.09;49.92
41306;BME280;27051;50.376;19.152;2024-01-11T08:35:07;98940.86;;;-2.01;49.62
41306;BME280;27051;50.376;19.152;2024-01-11T08:37:34;98942.13;;;-1.93;49.83
41306;BME280;27051;50.376;19.152;2024-01-11T08:40:01;98947.27;;;-1.85;49.82
41306;BME280;27051;50.376;19.152;2024-01-11T08:42:29;98948.46;;;-1.77;49.66
41306;BME280;27051;50.376;19.152;2024-01-11T08:44:58;98959.63;;;-1.66;49.52
41306;BME280;27051;50.376;19.152;2024-01-11T08:47:25;98966.18;;;-1.65;49.24
41306;BME280;27051;50.376;19.152;2024-01-11T08:49:52;98971.86;;;-1.63;49.36
41306;BME280;27051;50.376;19.152;2024-01-11T08:52:19;98966.91;;;-1.63;49.26
41306;BME280;27051;50.376;19.152;2024-01-11T08:54:46;98964.55;;;-1.55;48.91
41306;BME280;27051;50.376;19.152;2024-01-11T08:57:13;98968.65;;;-1.45;48.89
41306;BME280;27051;50.376;19.152;2024-01-11T08:59:39;98964.05;;;-1.40;49.15
41306;BME280;27051;50.376;19.152;2024-01-11T09:02:07;98961.13;;;-1.22;49.32
41306;BME280;27051;50.376;19.152;2024-01-11T09:04:33;98964.93;;;-1.03;49.14
41306;BME280;27051;50.376;19.152;2024-01-11T09:07:00;98970.58;;;-0.84;48.95
41306;BME280;27051;50.376;19.152;2024-01-11T09:09:27;98981.98;;;-0.66;48.78
41306;BME280;27051;50.376;19.152;2024-01-11T09:11:54;98985.56;;;-0.50;48.74
41306;BME280;27051;50.376;19.152;2024-01-11T09:14:21;98986.04;;;-0.33;48.47
41306;BME280;27051;50.376;19.152;2024-01-11T09:16:48;98983.80;;;-0.26;48.33
41306;BME280;27051;50.376;19.152;2024-01-11T09:19:15;98982.57;;;-0.19;48.26
41306;BME280;27051;50.376;19.152;2024-01-11T09:21:42;98974.80;;;-0.18;48.22
41306;BME280;27051;50.376;19.152;2024-01-11T09:24:09;98964.19;;;-0.13;48.21
41306;BME280;27051;50.376;19.152;2024-01-11T09:26:36;98961.39;;;0.02;47.21
41306;BME280;27051;50.376;19.152;2024-01-11T09:29:03;98957.65;;;0.07;47.62
41306;BME280;27051;50.376;19.152;2024-01-11T09:31:30;98947.56;;;0.13;47.08
41306;BME280;27051;50.376;19.152;2024-01-11T09:33:57;98947.49;;;0.11;46.99
41306;BME280;27051;50.376;19.152;2024-01-11T09:36:24;98943.85;;;0.13;47.09
41306;BME280;27051;50.376;19.152;2024-01-11T09:38:51;98939.94;;;0.13;46.96
41306;BME280;27051;50.376;19.152;2024-01-11T09:41:18;98933.11;;;0.12;46.72
41306;BME280;27051;50.376;19.152;2024-01-11T09:43:45;98929.44;;;0.10;46.91
41306;BME280;27051;50.376;19.152;2024-01-11T09:46:16;98920.84;;;0.11;46.83
41306;BME280;27051;50.376;19.152;2024-01-11T09:48:44;98918.48;;;0.18;46.93
41306;BME280;27051;50.376;19.152;2024-01-11T09:51:12;98915.55;;;0.22;46.98
41306;BME280;27051;50.376;19.152;2024-01-11T09:53:40;98914.02;;;0.31;46.93
41306;BME280;27051;50.376;19.152;2024-01-11T09:56:09;98902.23;;;0.36;46.84
41306;BME280;27051;50.376;19.152;2024-01-11T09:58:36;98896.25;;;0.42;46.87
41306;BME280;27051;50.376;19.152;2024-01-11T10:01:07;98886.31;;;0.36;46.39
41306;BME280;27051;50.376;19.152;2024-01-11T10:03:36;98889.09;;;0.33;46.87
41306;BME280;27051;50.376;19.152;2024-01-11T10:06:03;98894.39;;;0.34;46.81
41306;BME280;27051;50.376;19.152;2024-01-11T10:08:31;98891.09;;;0.37;46.47
41306;BME280;27051;50.376;19.152;2024-01-11T10:10:59;98887.09;;;0.35;46.89
41306;BME280;27051;50.376;19.152;2024-01-11T10:13:27;98883.54;;;0.38;46.97
41306;BME280;27051;50.376;19.152;2024-01-11T10:16:08;98883.58;;;0.44;47.08
41306;BME280;27051;50.376;19.152;2024-01-11T10:18:36;98884.66;;;0.56;46.82
41306;BME280;27051;50.376;19.152;2024-01-11T10:21:03;98875.68;;;0.57;46.49
41306;BME280;27051;50.376;19.152;2024-01-11T10:23:33;98876.29;;;0.54;46.63
41306;BME280;27051;50.376;19.152;2024-01-11T10:26:00;98874.40;;;0.55;46.47
41306;BME280;27051;50.376;19.152;2024-01-11T10:28:28;98869.95;;;0.55;46.70
41306;BME280;27051;50.376;19.152;2024-01-11T10:30:55;98875.89;;;0.64;46.45
41306;BME280;27051;50.376;19.152;2024-01-11T10:33:22;98878.94;;;0.68;46.60
41306;BME280;27051;50.376;19.152;2024-01-11T10:35:49;98884.58;;;0.74;46.73
41306;BME280;27051;50.376;19.152;2024-01-11T10:38:18;98887.18;;;0.84;46.56
41306;BME280;27051;50.376;19.152;2024-01-11T10:40:45;98886.87;;;0.79;46.68
41306;BME280;27051;50.376;19.152;2024-01-11T10:43:14;98883.91;;;0.86;46.75
41306;BME280;27051;50.376;19.152;2024-01-11T10:45:50;98867.62;;;0.98;46.29
41306;BME280;27051;50.376;19.152;2024-01-11T10:48:18;98866.61;;;0.97;46.48
41306;BME280;27051;50.376;19.152;2024-01-11T10:50:54;98857.73;;;1.10;46.49
41306;BME280;27051;50.376;19.152;2024-01-11T10:53:46;98847.85;;;1.20;46.18
41306;BME280;27051;50.376;19.152;2024-01-11T10:56:15;98860.77;;;1.27;46.19
41306;BME280;27051;50.376;19.152;2024-01-11T10:58:43;98867.11;;;1.29;46.37
41306;BME280;27051;50.376;19.152;2024-01-11T11:01:11;98860.02;;;1.27;46.06
41306;BME280;27051;50.376;19.152;2024-01-11T11:03:39;98864.04;;;1.16;45.82
41306;BME280;27051;50.376;19.152;2024-01-11T11:06:06;98865.01;;;1.06;46.08
41306;BME280;27051;50.376;19.152;2024-01-11T11:08:34;98863.15;;;1.04;46.48
41306;BME280;27051;50.376;19.152;2024-01-11T11:11:03;98856.05;;;1.00;46.07
41306;BME280;27051;50.376;19.152;2024-01-11T11:13:32;98845.95;;;0.95;45.96
41306;BME280;27051;50.376;19.152;2024-01-11T11:15:59;98840.86;;;1.05;46.20
41306;BME280;27051;50.376;19.152;2024-01-11T11:18:26;98844.05;;;1.20;46.02
41306;BME280;27051;50.376;19.152;2024-01-11T11:20:53;98835.41;;;1.34;45.88
41306;BME280;27051;50.376;19.152;2024-01-11T11:23:19;98829.00;;;1.52;45.51
41306;BME280;27051;50.376;19.152;2024-01-11T11:25:48;98830.51;;;1.64;45.40
41306;BME280;27051;50.376;19.152;2024-01-11T11:28:17;98831.48;;;1.69;45.51
41306;BME280;27051;50.376;19.152;2024-01-11T11:30:48;98829.05;;;1.74;45.79
41306;BME280;27051;50.376;19.152;2024-01-11T11:33:24;98826.35;;;1.75;45.33
41306;BME280;27051;50.376;19.152;2024-01-11T11:35:53;98823.63;;;1.69;45.43
41306;BME280;27051;50.376;19.152;2024-01-11T11:38:22;98816.72;;;1.60;45.30
41306;BME280;27051;50.376;19.152;2024-01-11T11:40:51;98810.26;;;1.58;45.42
41306;BME280;27051;50.376;19.152;2024-01-11T11:43:20;98806.55;;;1.56;45.57
41306;BME280;27051;50.376;19.152;2024-01-11T11:45:49;98807.05;;;1.68;45.47
41306;BME280;27051;50.376;19.152;2024-01-11T11:51:09;98797.72;;;1.42;45.21
41306;BME280;27051;50.376;19.152;2024-01-11T11:53:38;98780.98;;;1.43;45.41
41306;BME280;27051;50.376;19.152;2024-01-11T11:56:06;98776.55;;;1.52;45.57
41306;BME280;27051;50.376;19.152;2024-01-11T11:58:34;98776.98;;;1.65;45.77
41306;BME280;27051;50.376;19.152;2024-01-11T12:01:03;98775.56;;;1.78;45.34
41306;BME280;27051;50.376;19.152;2024-01-11T12:03:34;98773.14;;;1.82;45.54
41306;BME280;27051;50.376;19.152;2024-01-11T12:06:01;98765.08;;;1.88;45.51
41306;BME280;27051;50.376;19.152;2024-01-11T12:08:28;98769.10;;;1.89;45.33
41306;BME280;27051;50.376;19.152;2024-01-11T12:10:56;98767.14;;;1.94;45.53
41306;BME280;27051;50.376;19.152;2024-01-11T12:13:24;98763.47;;;2.08;45.20
41306;BME280;27051;50.376;19.152;2024-01-11T12:15:52;98763.59;;;2.01;45.09
41306;BME280;27051;50.376;19.152;2024-01-11T12:18:19;98763.10;;;2.02;45.35
41306;BME280;27051;50.376;19.152;2024-01-11T12:20:46;98763.78;;;2.10;45.50
41306;BME280;27051;50.376;19.152;2024-01-11T12:23:13;98764.75;;;2.09;45.18
41306;BME280;27051;50.376;19.152;2024-01-11T12:25:41;98767.92;;;2.07;45.24
41306;BME280;27051;50.376;19.152;2024-01-11T12:28:09;98769.01;;;1.95;45.25
41306;BME280;27051;50.376;19.152;2024-01-11T12:30:36;98766.98;;;1.85;45.44
41306;BME280;27051;50.376;19.152;2024-01-11T12:33:03;98767.61;;;1.85;45.80
41306;BME280;27051;50.376;19.152;2024-01-11T12:35:31;98765.08;;;1.95;45.84
41306;BME280;27051;50.376;19.152;2024-01-11T12:38:02;98766.23;;;1.91;45.68
41306;BME280;27051;50.376;19.152;2024-01-11T12:40:32;98759.71;;;1.72;45.62
41306;BME280;27051;50.376;19.152;2024-01-11T12:42:59;98754.68;;;1.67;45.95
41306;BME280;27051;50.376;19.152;2024-01-11T12:45:29;98747.20;;;1.72;45.98
41306;BME280;27051;50.376;19.152;2024-01-11T12:47:56;98737.14;;;1.81;46.18
41306;BME280;27051;50.376;19.152;2024-01-11T12:50:25;98734.33;;;1.83;46.08
41306;BME280;27051;50.376;19.152;2024-01-11T12:53:07;98723.30;;;1.88;46.27
41306;BME280;27051;50.376;19.152;2024-01-11T12:55:34;98716.19;;;1.91;46.12
41306;BME280;27051;50.376;19.152;2024-01-11T12:58:08;98712.27;;;1.91;46.19